createdAt,value
2023-05-20T00:01:06.395Z,98838.00
2023-05-20T00:03:33.120Z,98834.00
2023-05-20T00:05:59.804Z,98832.00
2023-05-20T00:08:26.515Z,98842.00
2023-05-20T00:10:53.065Z,98842.00
2023-05-20T00:13:19.587Z,98839.00
2023-05-20T00:15:46.119Z,98839.00
2023-05-20T00:18:12.660Z,98832.00
2023-05-20T00:20:39.226Z,98836.00
2023-05-20T00:23:05.925Z,98830.00
2023-05-20T00:25:32.734Z,98834.00
2023-05-20T00:27:59.497Z,98830.00
2023-05-20T00:30:26.350Z,98830.00
2023-05-20T00:32:52.938Z,98834.00
2023-05-20T00:35:19.500Z,98829.00
2023-05-20T00:37:45.988Z,98825.00
2023-05-20T00:40:15.340Z,98825.00
2023-05-20T00:42:43.780Z,98823.00
2023-05-20T00:45:10.839Z,98829.00
2023-05-20T00:47:39.115Z,98830.00
2023-05-20T00:50:06.553Z,98826.00
2023-05-20T00:52:33.815Z,98827.00
2023-05-20T00:55:01.114Z,98827.00
2023-05-20T00:57:27.730Z,98826.00
2023-05-20T00:59:54.655Z,98816.00
2023-05-20T01:02:21.674Z,98819.00
2023-05-20T01:04:48.604Z,98822.00
2023-05-20T01:07:17.321Z,98820.00
2023-05-20T01:09:44.638Z,98824.00
2023-05-20T01:12:11.108Z,98817.00
2023-05-20T01:14:46.834Z,98827.00
2023-05-20T01:17:17.720Z,98820.00
2023-05-20T01:19:48.654Z,98819.00
2023-05-20T01:22:15.413Z,98817.00
2023-05-20T01:24:49.581Z,98820.00
2023-05-20T01:27:16.171Z,98825.00
2023-05-20T01:29:44.076Z,98815.00
2023-05-20T01:32:15.372Z,98816.00
2023-05-20T01:34:43.142Z,98809.00
2023-05-20T01:37:10.915Z,98804.00
2023-05-20T01:39:41.584Z,98806.00
2023-05-20T01:42:12.243Z,98807.00
2023-05-20T01:44:39.206Z,98814.00
2023-05-20T01:47:06.081Z,98810.00
2023-05-20T01:49:32.906Z,98803.00
2023-05-20T01:51:59.608Z,98808.00
2023-05-20T01:54:26.572Z,98819.00
2023-05-20T01:56:53.444Z,98815.00
2023-05-20T01:59:22.029Z,98811.00
2023-05-20T02:01:48.765Z,98803.00
2023-05-20T02:04:15.961Z,98807.00
2023-05-20T02:06:42.526Z,98806.00
2023-05-20T02:09:09.031Z,98805.00
2023-05-20T02:11:36.183Z,98805.00
2023-05-20T02:14:02.704Z,98801.00
2023-05-20T02:16:29.496Z,98809.00
2023-05-20T02:18:58.535Z,98805.00
2023-05-20T02:21:25.886Z,98801.00
2023-05-20T02:23:53.661Z,98798.00
2023-05-20T02:26:20.721Z,98804.00
2023-05-20T02:28:50.610Z,98796.00
2023-05-20T02:31:17.768Z,98805.00
2023-05-20T02:33:45.210Z,98809.00
2023-05-20T02:36:12.391Z,98807.00
2023-05-20T02:38:38.967Z,98801.00
2023-05-20T02:41:05.622Z,98801.00
2023-05-20T02:43:33.768Z,98801.00
2023-05-20T02:46:01.460Z,98800.00
2023-05-20T02:48:28.192Z,98799.00
2023-05-20T02:50:54.928Z,98791.00
2023-05-20T02:53:21.489Z,98784.00
2023-05-20T02:55:48.974Z,98786.00
2023-05-20T02:58:15.928Z,98781.00
2023-05-20T03:00:43.541Z,98780.00
2023-05-20T03:03:10.683Z,98776.00
2023-05-20T03:05:37.682Z,98768.00
2023-05-20T03:08:09.677Z,98772.00
2023-05-20T03:10:37.694Z,98761.00
2023-05-20T03:13:10.040Z,98763.00
2023-05-20T03:15:40.973Z,98764.00
2023-05-20T03:18:11.059Z,98772.00
2023-05-20T03:20:38.309Z,98766.00
2023-05-20T03:23:06.741Z,98769.00
2023-05-20T03:25:33.830Z,98765.00
2023-05-20T03:28:00.608Z,98759.00
2023-05-20T03:30:27.808Z,98758.00
2023-05-20T03:32:57.795Z,98759.00
2023-05-20T03:35:25.603Z,98761.00
2023-05-20T03:37:53.330Z,98760.00
2023-05-20T03:40:22.312Z,98760.00
2023-05-20T03:42:50.846Z,98764.00
2023-05-20T03:45:19.155Z,98763.00
2023-05-20T03:48:04.717Z,98767.00
2023-05-20T03:50:33.478Z,98755.00
2023-05-20T03:53:00.829Z,98760.00
2023-05-20T03:55:32.547Z,98764.00
2023-05-20T03:58:01.173Z,98764.00
2023-05-20T04:00:30.527Z,98770.00
2023-05-20T04:02:58.404Z,98765.00
2023-05-20T04:05:25.305Z,98766.00
2023-05-20T04:07:51.987Z,98771.00
2023-05-20T04:10:20.902Z,98759.00
2023-05-20T04:12:47.620Z,98769.00
2023-05-20T04:15:15.038Z,98771.00
2023-05-20T04:17:55.797Z,98761.00
2023-05-20T04:20:22.593Z,98765.00
2023-05-20T04:22:50.690Z,98765.00
2023-05-20T04:25:18.710Z,98763.00
2023-05-20T04:27:45.331Z,98765.00
2023-05-20T04:30:12.593Z,98761.00
2023-05-20T04:32:41.607Z,98754.00
2023-05-20T04:35:11.879Z,98760.00
2023-05-20T04:37:42.308Z,98761.00
2023-05-20T04:40:09.726Z,98755.00
2023-05-20T04:42:37.717Z,98754.00
2023-05-20T04:45:05.812Z,98747.00
2023-05-20T04:47:38.622Z,98745.00
2023-05-20T04:50:13.551Z,98747.00
2023-05-20T04:52:43.712Z,98748.00
2023-05-20T04:55:11.833Z,98755.00
2023-05-20T04:57:42.236Z,98748.00
2023-05-20T05:00:13.189Z,98749.00
2023-05-20T05:02:40.521Z,98744.00
2023-05-20T05:05:07.895Z,98742.00
2023-05-20T05:07:34.850Z,98749.00
2023-05-20T05:10:01.691Z,98743.00
2023-05-20T05:12:30.685Z,98739.00
2023-05-20T05:14:58.791Z,98738.00
2023-05-20T05:17:26.102Z,98734.00
2023-05-20T05:19:52.918Z,98739.00
2023-05-20T05:22:19.469Z,98734.00
2023-05-20T05:24:46.275Z,98729.00
2023-05-20T05:27:13.046Z,98722.00
2023-05-20T05:29:39.853Z,98724.00
2023-05-20T05:32:06.672Z,98731.00
2023-05-20T05:34:33.258Z,98733.00
2023-05-20T05:36:59.800Z,98729.00
2023-05-20T05:39:26.489Z,98717.00
2023-05-20T05:41:54.376Z,98726.00
2023-05-20T05:44:21.544Z,98711.00
2023-05-20T05:46:48.928Z,98716.00
2023-05-20T05:49:16.971Z,98718.00
2023-05-20T05:51:43.617Z,98711.00
2023-05-20T05:54:10.219Z,98709.00
2023-05-20T05:56:37.621Z,98710.00
2023-05-20T05:59:05.113Z,98712.00
2023-05-20T06:01:31.770Z,98713.00
2023-05-20T06:03:59.412Z,98712.00
2023-05-20T06:06:26.563Z,98719.00
2023-05-20T06:08:53.895Z,98710.00
2023-05-20T06:11:21.643Z,98707.00
2023-05-20T06:13:48.245Z,98698.00
2023-05-20T06:16:14.812Z,98707.00
2023-05-20T06:18:41.622Z,98702.00
2023-05-20T06:21:09.181Z,98707.00
2023-05-20T06:23:35.865Z,98707.00
2023-05-20T06:26:05.229Z,98709.00
2023-05-20T06:28:32.289Z,98693.00
2023-05-20T06:30:59.191Z,98697.00
2023-05-20T06:33:28.549Z,98692.00
2023-05-20T06:36:01.651Z,98690.00
2023-05-20T06:38:28.603Z,98696.00
2023-05-20T06:40:55.465Z,98697.00
2023-05-20T06:43:22.169Z,98702.00
2023-05-20T06:46:04.066Z,98694.00
2023-05-20T06:48:35.921Z,98698.00
2023-05-20T06:51:02.560Z,98703.00
2023-05-20T06:53:29.521Z,98696.00
2023-05-20T06:55:56.436Z,98694.00
2023-05-20T06:58:23.418Z,98699.00
2023-05-20T07:00:49.996Z,98703.00
2023-05-20T07:03:17.010Z,98699.00
2023-05-20T07:05:45.115Z,98692.00
2023-05-20T07:08:12.112Z,98691.00
2023-05-20T07:10:38.923Z,98689.00
2023-05-20T07:13:05.950Z,98681.00
2023-05-20T07:15:32.771Z,98677.00
2023-05-20T07:17:59.642Z,98690.00
2023-05-20T07:20:26.416Z,98689.00
2023-05-20T07:22:53.614Z,98684.00
2023-05-20T07:25:38.975Z,98693.00
2023-05-20T07:28:05.766Z,98684.00
2023-05-20T07:30:32.561Z,98689.00
2023-05-20T07:33:14.516Z,98694.00
2023-05-20T07:35:41.166Z,98687.00
2023-05-20T07:38:07.779Z,98681.00
2023-05-20T07:40:36.786Z,98674.00
2023-05-20T07:43:05.819Z,98679.00
2023-05-20T07:45:32.854Z,98681.00
2023-05-20T07:47:59.725Z,98685.00
2023-05-20T07:50:26.614Z,98675.00
2023-05-20T07:52:56.484Z,98678.00
2023-05-20T07:55:26.029Z,98674.00
2023-05-20T07:57:52.594Z,98671.00
2023-05-20T08:00:19.719Z,98683.00
2023-05-20T08:02:46.431Z,98678.00
2023-05-20T08:05:17.539Z,98672.00
2023-05-20T08:07:45.616Z,98665.00
2023-05-20T08:10:14.041Z,98673.00
2023-05-20T08:12:41.734Z,98674.00
2023-05-20T08:15:08.729Z,98670.00
2023-05-20T08:17:35.532Z,98671.00
2023-05-20T08:20:02.803Z,98661.00
2023-05-20T08:22:29.430Z,98671.00
2023-05-20T08:24:56.372Z,98663.00
2023-05-20T08:27:22.968Z,98662.00
2023-05-20T08:29:49.627Z,98667.00
2023-05-20T08:32:16.313Z,98667.00
2023-05-20T08:34:45.179Z,98669.00
2023-05-20T08:37:11.913Z,98677.00
2023-05-20T08:39:38.691Z,98679.00
2023-05-20T08:42:07.974Z,98679.00
2023-05-20T08:44:35.780Z,98678.00
2023-05-20T08:47:05.149Z,98680.00
2023-05-20T08:49:32.240Z,98678.00
2023-05-20T08:52:01.042Z,98672.00
2023-05-20T08:54:52.622Z,98675.00
2023-05-20T08:57:21.222Z,98673.00
2023-05-20T08:59:47.821Z,98670.00
2023-05-20T09:02:14.918Z,98671.00
2023-05-20T09:04:42.031Z,98673.00
2023-05-20T09:07:08.742Z,98671.00
2023-05-20T09:09:35.641Z,98672.00
2023-05-20T09:12:03.572Z,98666.00
2023-05-20T09:14:31.733Z,98664.00
2023-05-20T09:16:58.593Z,98656.00
2023-05-20T09:19:25.598Z,98650.00
2023-05-20T09:21:55.351Z,98643.00
2023-05-20T09:24:26.325Z,98640.00
2023-05-20T09:26:53.098Z,98639.00
2023-05-20T09:29:21.783Z,98649.00
2023-05-20T09:31:49.648Z,98646.00
2023-05-20T09:34:17.519Z,98644.00
2023-05-20T09:36:45.237Z,98638.00
2023-05-20T09:39:16.720Z,98640.00
2023-05-20T09:42:06.963Z,98648.00
2023-05-20T09:44:35.147Z,98642.00
2023-05-20T09:47:02.974Z,98633.00
2023-05-20T09:49:32.519Z,98632.00
2023-05-20T09:52:01.406Z,98643.00
2023-05-20T09:54:29.146Z,98651.00
2023-05-20T09:56:59.680Z,98644.00
2023-05-20T09:59:27.365Z,98639.00
2023-05-20T10:01:54.192Z,98633.00
2023-05-20T10:04:23.220Z,98636.00
2023-05-20T10:07:01.883Z,98631.00
2023-05-20T10:09:56.448Z,98631.00
2023-05-20T10:12:26.024Z,98633.00
2023-05-20T10:15:09.602Z,98623.00
2023-05-20T10:18:01.521Z,98635.00
2023-05-20T10:20:28.416Z,98632.00
2023-05-20T10:22:59.628Z,98627.00
2023-05-20T10:25:29.677Z,98610.00
2023-05-20T10:28:09.023Z,98618.00
2023-05-20T10:30:36.109Z,98621.00
2023-05-20T10:33:05.665Z,98616.00
2023-05-20T10:35:32.632Z,98608.00
2023-05-20T10:38:11.890Z,98611.00
2023-05-20T10:40:38.837Z,98609.00
2023-05-20T10:43:14.730Z,98612.00
2023-05-20T10:45:56.033Z,98596.00
2023-05-20T10:48:33.575Z,98601.00
2023-05-20T10:51:04.705Z,98610.00
2023-05-20T10:53:39.785Z,98604.00
2023-05-20T10:56:16.308Z,98604.00
2023-05-20T10:58:43.651Z,98607.00
2023-05-20T11:01:10.941Z,98598.00
2023-05-20T11:03:38.802Z,98585.00
2023-05-20T11:06:17.575Z,98591.00
2023-05-20T11:08:46.047Z,98584.00
2023-05-20T11:11:13.450Z,98588.00
2023-05-20T11:13:41.240Z,98590.00
2023-05-20T11:16:07.895Z,98594.00
2023-05-20T11:18:34.506Z,98599.00
2023-05-20T11:21:02.088Z,98590.00
2023-05-20T11:23:29.581Z,98586.00
2023-05-20T11:25:57.280Z,98590.00
2023-05-20T11:28:24.231Z,98586.00
2023-05-20T11:30:52.595Z,98571.00
2023-05-20T11:33:19.616Z,98583.00
2023-05-20T11:35:49.930Z,98587.00
2023-05-20T11:38:16.803Z,98587.00
2023-05-20T11:40:50.955Z,98578.00
2023-05-20T11:43:18.487Z,98577.00
2023-05-20T11:45:54.334Z,98568.00
2023-05-20T11:48:21.718Z,98569.00
2023-05-20T11:50:48.975Z,98573.00
2023-05-20T11:53:20.286Z,98563.00
2023-05-20T11:55:58.253Z,98552.00
2023-05-20T11:58:27.009Z,98556.00
2023-05-20T12:00:59.554Z,98558.00
2023-05-20T12:03:32.898Z,98561.00
2023-05-20T12:06:01.731Z,98556.00
2023-05-20T12:08:28.327Z,98549.00
2023-05-20T12:10:54.885Z,98549.00
2023-05-20T12:13:23.210Z,98557.00
2023-05-20T12:15:49.803Z,98558.00
2023-05-20T12:18:16.309Z,98568.00
2023-05-20T12:20:42.840Z,98546.00
2023-05-20T12:23:09.360Z,98535.00
2023-05-20T12:25:35.909Z,98534.00
2023-05-20T12:28:02.586Z,98530.00
2023-05-20T12:30:29.120Z,98522.00
2023-05-20T12:32:55.873Z,98536.00
2023-05-20T12:35:42.425Z,98523.00
2023-05-20T12:38:09.688Z,98523.00
2023-05-20T12:40:37.394Z,98519.00
2023-05-20T12:43:05.469Z,98524.00
2023-05-20T12:45:32.490Z,98521.00
2023-05-20T12:47:59.524Z,98521.00
2023-05-20T12:50:26.579Z,98529.00
2023-05-20T12:52:53.377Z,98525.00
2023-05-20T12:55:19.885Z,98520.00
2023-05-20T12:57:48.123Z,98531.00
2023-05-20T13:00:15.250Z,98523.00
2023-05-20T13:02:42.635Z,98531.00
2023-05-20T13:05:10.501Z,98521.00
2023-05-20T13:07:37.484Z,98535.00
2023-05-20T13:10:04.591Z,98522.00
2023-05-20T13:12:31.162Z,98527.00
2023-05-20T13:14:57.665Z,98518.00
2023-05-20T13:17:24.336Z,98528.00
2023-05-20T13:19:51.489Z,98519.00
2023-05-20T13:22:18.085Z,98519.00
2023-05-20T13:24:44.693Z,98521.00
2023-05-20T13:27:11.424Z,98510.00
2023-05-20T13:29:37.954Z,98510.00
2023-05-20T13:32:04.786Z,98519.00
2023-05-20T13:34:31.809Z,98515.00
2023-05-20T13:36:58.365Z,98508.00
2023-05-20T13:39:25.020Z,98504.00
2023-05-20T13:41:53.480Z,98499.00
2023-05-20T13:44:20.234Z,98509.00
2023-05-20T13:46:46.920Z,98500.00
2023-05-20T13:49:13.577Z,98501.00
2023-05-20T13:51:40.330Z,98497.00
2023-05-20T13:54:06.933Z,98498.00
2023-05-20T13:56:34.052Z,98499.00
2023-05-20T13:59:01.061Z,98501.00
2023-05-20T14:01:30.255Z,98496.00
2023-05-20T14:03:57.043Z,98497.00
2023-05-20T14:06:23.676Z,98503.00
2023-05-20T14:08:50.367Z,98494.00
2023-05-20T14:11:16.888Z,98480.00
2023-05-20T14:13:44.975Z,98472.00
2023-05-20T14:16:11.553Z,98462.00
2023-05-20T14:18:38.145Z,98470.00
2023-05-20T14:21:04.962Z,98469.00
2023-05-20T14:23:31.534Z,98456.00
2023-05-20T14:25:58.221Z,98471.00
2023-05-20T14:28:24.713Z,98455.00
2023-05-20T14:30:51.397Z,98465.00
2023-05-20T14:33:18.116Z,98462.00
2023-05-20T14:35:44.643Z,98468.00
2023-05-20T14:38:11.394Z,98459.00
2023-05-20T14:40:38.125Z,98464.00
2023-05-20T14:43:04.744Z,98458.00
2023-05-20T14:45:31.446Z,98458.00
2023-05-20T14:47:58.010Z,98464.00
2023-05-20T14:50:24.520Z,98467.00
2023-05-20T14:52:50.992Z,98459.00
2023-05-20T14:55:17.479Z,98476.00
2023-05-20T14:57:44.095Z,98467.00
2023-05-20T15:00:11.528Z,98462.00
2023-05-20T15:02:38.124Z,98463.00
2023-05-20T15:05:05.067Z,98462.00
2023-05-20T15:07:31.559Z,98459.00
2023-05-20T15:09:58.042Z,98458.00
2023-05-20T15:12:24.646Z,98462.00
2023-05-20T15:14:51.178Z,98452.00
2023-05-20T15:17:17.706Z,98458.00
2023-05-20T15:19:44.268Z,98467.00
2023-05-20T15:22:10.910Z,98457.00
2023-05-20T15:24:37.484Z,98459.00
2023-05-20T15:27:04.587Z,98470.00
2023-05-20T15:29:31.138Z,98466.00
2023-05-20T15:31:58.518Z,98468.00
2023-05-20T15:34:25.051Z,98464.00
2023-05-20T15:36:51.857Z,98468.00
2023-05-20T15:39:18.357Z,98466.00
2023-05-20T15:41:47.858Z,98466.00
2023-05-20T15:44:14.395Z,98464.00
2023-05-20T15:46:41.216Z,98472.00
2023-05-20T15:49:07.824Z,98471.00
2023-05-20T15:51:34.359Z,98482.00
2023-05-20T15:54:00.895Z,98472.00
2023-05-20T15:56:28.622Z,98469.00
2023-05-20T15:58:55.865Z,98471.00
2023-05-20T16:01:23.263Z,98468.00
2023-05-20T16:03:50.017Z,98466.00
2023-05-20T16:06:16.645Z,98469.00
2023-05-20T16:08:43.165Z,98468.00
2023-05-20T16:11:09.788Z,98458.00
2023-05-20T16:13:36.357Z,98470.00
2023-05-20T16:16:03.030Z,98471.00
2023-05-20T16:18:29.799Z,98472.00
2023-05-20T16:20:57.391Z,98469.00
2023-05-20T16:23:24.090Z,98472.00
2023-05-20T16:25:51.215Z,98476.00
2023-05-20T16:28:17.826Z,98482.00
2023-05-20T16:30:44.377Z,98495.00
2023-05-20T16:33:11.276Z,98487.00
2023-05-20T16:35:37.883Z,98491.00
2023-05-20T16:38:04.468Z,98484.00
2023-05-20T16:40:31.229Z,98490.00
2023-05-20T16:42:57.915Z,98486.00
2023-05-20T16:45:24.453Z,98493.00
2023-05-20T16:47:51.628Z,98493.00
2023-05-20T16:50:18.445Z,98487.00
2023-05-20T16:52:45.082Z,98488.00
2023-05-20T16:55:13.553Z,98488.00
2023-05-20T16:57:40.072Z,98489.00
2023-05-20T17:00:11.304Z,98481.00
2023-05-20T17:02:37.894Z,98482.00
2023-05-20T17:05:04.838Z,98483.00
2023-05-20T17:07:33.445Z,98478.00
2023-05-20T17:10:00.495Z,98487.00
2023-05-20T17:12:27.448Z,98475.00
2023-05-20T17:14:54.205Z,98488.00
2023-05-20T17:17:21.265Z,98485.00
2023-05-20T17:19:47.989Z,98481.00
2023-05-20T17:22:14.551Z,98493.00
2023-05-20T17:24:41.132Z,98495.00
2023-05-20T17:27:07.808Z,98491.00
2023-05-20T17:29:34.426Z,98497.00
2023-05-20T17:32:00.953Z,98492.00
2023-05-20T17:34:27.479Z,98494.00
2023-05-20T17:36:54.006Z,98485.00
2023-05-20T17:39:20.674Z,98489.00
2023-05-20T17:41:47.166Z,98486.00
2023-05-20T17:44:13.765Z,98490.00
2023-05-20T17:46:40.609Z,98485.00
2023-05-20T17:49:07.198Z,98489.00
2023-05-20T17:51:34.202Z,98497.00
2023-05-20T17:54:00.846Z,98493.00
2023-05-20T17:56:27.445Z,98495.00
2023-05-20T17:58:56.151Z,98505.00
2023-05-20T18:01:23.425Z,98514.00
2023-05-20T18:03:50.295Z,98517.00
2023-05-20T18:06:17.969Z,98514.00
2023-05-20T18:08:44.676Z,98520.00
2023-05-20T18:11:11.383Z,98530.00
2023-05-20T18:13:38.002Z,98524.00
2023-05-20T18:16:05.035Z,98529.00
2023-05-20T18:18:31.756Z,98531.00
2023-05-20T18:20:58.296Z,98523.00
2023-05-20T18:23:24.850Z,98525.00
2023-05-20T18:25:51.767Z,98514.00
2023-05-20T18:28:18.314Z,98522.00
2023-05-20T18:30:44.851Z,98516.00
2023-05-20T18:33:11.715Z,98520.00
2023-05-20T18:35:39.136Z,98515.00
2023-05-20T18:38:05.755Z,98513.00
2023-05-20T18:40:32.386Z,98522.00
2023-05-20T18:42:59.070Z,98522.00
2023-05-20T18:45:25.883Z,98521.00
2023-05-20T18:47:57.686Z,98528.00
2023-05-20T18:50:24.265Z,98521.00
2023-05-20T18:52:50.931Z,98518.00
2023-05-20T18:55:17.707Z,98513.00
2023-05-20T18:57:44.431Z,98507.00
2023-05-20T19:00:12.455Z,98516.00
2023-05-20T19:02:40.668Z,98510.00
2023-05-20T19:05:12.436Z,98512.00
2023-05-20T19:07:39.511Z,98511.00
2023-05-20T19:10:06.743Z,98506.00
2023-05-20T19:12:33.478Z,98514.00
2023-05-20T19:15:01.366Z,98518.00
2023-05-20T19:17:28.059Z,98511.00
2023-05-20T19:19:54.642Z,98514.00
2023-05-20T19:22:21.129Z,98521.00
2023-05-20T19:24:47.731Z,98523.00
2023-05-20T19:27:14.433Z,98518.00
2023-05-20T19:29:41.049Z,98523.00
2023-05-20T19:32:07.903Z,98523.00
2023-05-20T19:34:34.728Z,98525.00
2023-05-20T19:37:01.389Z,98521.00
2023-05-20T19:39:28.811Z,98529.00
2023-05-20T19:41:55.705Z,98529.00
2023-05-20T19:44:23.095Z,98536.00
2023-05-20T19:46:49.733Z,98521.00
2023-05-20T19:49:16.321Z,98537.00
2023-05-20T19:51:42.855Z,98530.00
2023-05-20T19:54:10.086Z,98527.00
2023-05-20T19:56:36.638Z,98534.00
2023-05-20T19:59:03.849Z,98537.00
2023-05-20T20:01:31.673Z,98535.00
2023-05-20T20:03:58.248Z,98541.00
2023-05-20T20:06:25.104Z,98537.00
2023-05-20T20:08:54.690Z,98534.00
2023-05-20T20:11:21.329Z,98530.00
2023-05-20T20:13:47.959Z,98536.00
2023-05-20T20:16:15.501Z,98539.00
2023-05-20T20:18:42.199Z,98537.00
2023-05-20T20:21:10.941Z,98539.00
2023-05-20T20:23:37.938Z,98536.00
2023-05-20T20:26:05.749Z,98528.00
2023-05-20T20:28:32.254Z,98534.00
2023-05-20T20:30:58.771Z,98524.00
2023-05-20T20:33:26.020Z,98525.00
2023-05-20T20:35:55.031Z,98527.00
2023-05-20T20:38:21.605Z,98524.00
2023-05-20T20:40:49.708Z,98519.00
2023-05-20T20:43:20.986Z,98522.00
2023-05-20T20:45:50.493Z,98517.00
2023-05-20T20:48:17.461Z,98517.00
2023-05-20T20:50:45.845Z,98519.00
2023-05-20T20:53:13.394Z,98520.00
2023-05-20T20:55:41.285Z,98515.00
2023-05-20T20:58:08.197Z,98524.00
2023-05-20T21:00:36.492Z,98514.00
2023-05-20T21:03:08.015Z,98514.00
2023-05-20T21:05:38.842Z,98516.00
2023-05-20T21:08:08.208Z,98510.00
2023-05-20T21:10:36.961Z,98512.00
2023-05-20T21:13:03.856Z,98506.00
2023-05-20T21:15:30.460Z,98498.00
2023-05-20T21:17:57.017Z,98497.00
2023-05-20T21:20:23.635Z,98489.00
2023-05-20T21:22:50.102Z,98487.00
2023-05-20T21:25:16.710Z,98486.00
2023-05-20T21:27:43.210Z,98495.00
2023-05-20T21:30:10.809Z,98483.00
2023-05-20T21:32:38.118Z,98482.00
2023-05-20T21:35:05.115Z,98482.00
2023-05-20T21:37:31.630Z,98484.00
2023-05-20T21:39:58.343Z,98475.00
2023-05-20T21:42:24.874Z,98479.00
2023-05-20T21:44:51.485Z,98467.00
2023-05-20T21:47:19.582Z,98471.00
2023-05-20T21:49:47.936Z,98478.00
2023-05-20T21:52:14.747Z,98471.00
2023-05-20T21:54:41.668Z,98471.00
2023-05-20T21:57:08.188Z,98474.00
2023-05-20T21:59:34.764Z,98472.00
2023-05-20T22:02:01.423Z,98471.00
2023-05-20T22:04:28.648Z,98470.00
2023-05-20T22:06:56.622Z,98471.00
2023-05-20T22:09:23.170Z,98473.00
2023-05-20T22:11:49.710Z,98464.00
2023-05-20T22:14:16.883Z,98466.00
2023-05-20T22:16:48.345Z,98452.00
2023-05-20T22:19:16.013Z,98449.00
2023-05-20T22:21:50.027Z,98452.00
2023-05-20T22:24:17.948Z,98453.00
2023-05-20T22:26:44.692Z,98447.00
2023-05-20T22:29:11.286Z,98442.00
2023-05-20T22:31:38.088Z,98438.00
2023-05-20T22:34:05.515Z,98436.00
2023-05-20T22:36:34.137Z,98432.00
2023-05-20T22:39:02.236Z,98427.00
2023-05-20T22:41:29.075Z,98423.00
2023-05-20T22:43:56.786Z,98423.00
2023-05-20T22:46:23.928Z,98419.00
2023-05-20T22:48:52.909Z,98411.00
2023-05-20T22:51:21.316Z,98421.00
2023-05-20T22:53:48.569Z,98406.00
2023-05-20T22:56:15.424Z,98409.00
2023-05-20T22:58:42.591Z,98410.00
2023-05-20T23:01:10.409Z,98397.00
2023-05-20T23:03:37.752Z,98398.00
2023-05-20T23:06:04.407Z,98401.00
2023-05-20T23:08:30.986Z,98391.00
2023-05-20T23:10:57.480Z,98395.00
2023-05-20T23:13:24.014Z,98389.00
2023-05-20T23:15:50.544Z,98385.00
2023-05-20T23:18:18.065Z,98390.00
2023-05-20T23:20:44.575Z,98381.00
2023-05-20T23:23:11.648Z,98388.00
2023-05-20T23:25:38.987Z,98390.00
2023-05-20T23:28:06.225Z,98384.00
2023-05-20T23:30:32.817Z,98390.00
2023-05-20T23:32:59.804Z,98392.00
2023-05-20T23:35:26.388Z,98384.00
2023-05-20T23:37:53.020Z,98379.00
2023-05-20T23:40:19.541Z,98376.00
2023-05-20T23:42:46.214Z,98386.00
2023-05-20T23:45:13.126Z,98386.00
2023-05-20T23:47:39.737Z,98383.00
2023-05-20T23:50:06.759Z,98378.00
2023-05-20T23:52:33.296Z,98374.00
2023-05-20T23:55:00.393Z,98373.00
2023-05-20T23:57:27.202Z,98368.00
2023-05-20T23:59:53.761Z,98367.00
